Time;durP1;ratioP1;P1;durP2;ratioP2;P2;SDS_P1;SDS_P2;PMS_P1;PMS_P2;Temp;Humidity;BMP_temperature;BMP_pressure;BME280_temperature;BME280_humidity;BME280_pressure;Samples;Min_cycle;Max_cycle;Signal;HPM_P1;HPM_P2
2022/02/17 00:01:08;;;;;;;11.52;3.30;;;;;;;22.00;39.25;98581.28;5033784;28;20872;-65
2022/02/17 00:03:33;;;;;;;12.82;3.35;;;;;;;22.00;39.45;98578.66;5037902;28;20064;-65
2022/02/17 00:06:00;;;;;;;11.93;3.40;;;;;;;21.97;39.43;98595.03;5032585;28;20044;-65
2022/02/17 00:08:28;;;;;;;13.50;3.08;;;;;;;21.89;39.30;98579.56;5036784;28;20983;-65
2022/02/17 00:10:54;;;;;;;10.95;2.47;;;;;;;21.91;39.57;98586.25;5031799;28;20043;-65
2022/02/17 00:13:19;;;;;;;13.23;3.05;;;;;;;21.87;39.63;98576.38;5035256;28;20486;-64
2022/02/17 00:15:46;;;;;;;13.40;3.13;;;;;;;21.82;39.29;98574.47;5033576;28;20712;-65
2022/02/17 00:18:21;;;;;;;10.52;3.08;;;;;;;21.85;39.41;98584.56;5036688;28;20916;-65
2022/02/17 00:20:53;;;;;;;13.65;2.95;;;;;;;21.82;39.55;98571.00;5039034;28;20040;-65
2022/02/17 00:23:19;;;;;;;9.38;3.22;;;;;;;21.81;39.41;98567.56;5034756;28;20045;-64
2022/02/17 00:25:45;;;;;;;9.13;2.72;;;;;;;21.77;39.21;98566.47;5035184;28;20071;-65
2022/02/17 00:28:11;;;;;;;9.70;2.90;;;;;;;21.77;39.14;98611.50;5035316;28;20039;-65
2022/02/17 00:30:36;;;;;;;13.95;3.55;;;;;;;21.70;39.39;98590.47;5029914;28;20064;-65
2022/02/17 00:33:02;;;;;;;7.55;2.80;;;;;;;21.68;39.43;98570.56;5034330;28;20539;-65
2022/02/17 00:35:30;;;;;;;10.77;3.10;;;;;;;21.67;39.36;98629.91;5032162;28;20087;-65
2022/02/17 00:37:58;;;;;;;12.80;2.92;;;;;;;21.68;39.35;98632.28;5036656;28;20037;-65
2022/02/17 00:40:24;;;;;;;12.00;3.50;;;;;;;21.63;39.34;98640.19;5030839;28;20075;-65
2022/02/17 00:42:50;;;;;;;9.40;2.78;;;;;;;21.63;39.40;98650.78;5038482;28;20028;-65
2022/02/17 00:45:15;;;;;;;9.75;2.50;;;;;;;21.60;39.41;98640.66;5033344;28;20402;-65
2022/02/17 00:47:41;;;;;;;9.73;2.50;;;;;;;21.58;39.32;98665.81;5034778;28;20037;-65
2022/02/17 00:50:09;;;;;;;12.38;3.03;;;;;;;21.56;39.41;98644.88;5006759;28;20037;-65
2022/02/17 00:52:35;;;;;;;11.57;2.63;;;;;;;21.56;39.27;98668.69;5038349;28;20044;-65
2022/02/17 00:55:02;;;;;;;7.75;2.58;;;;;;;21.55;39.30;98659.16;5029916;28;20564;-65
2022/02/17 00:57:28;;;;;;;11.95;3.00;;;;;;;21.52;39.43;98643.72;5037213;28;20483;-65
2022/02/17 00:59:53;;;;;;;12.43;3.10;;;;;;;21.51;39.29;98660.66;5032553;28;20036;-65
2022/02/17 01:02:19;;;;;;;10.57;3.22;;;;;;;21.49;39.29;98646.84;5033137;28;20094;-65
2022/02/17 01:04:45;;;;;;;9.77;2.90;;;;;;;21.47;39.52;98671.97;5029402;28;20503;-65
2022/02/17 01:07:10;;;;;;;11.50;3.15;;;;;;;21.47;39.38;98648.16;5033408;28;20039;-65
2022/02/17 01:09:36;;;;;;;11.20;2.90;;;;;;;21.42;39.19;98667.41;5032083;28;20047;-66
2022/02/17 01:12:02;;;;;;;11.15;2.90;;;;;;;21.45;39.35;98680.16;5033348;28;20044;-64
2022/02/17 01:14:27;;;;;;;11.35;2.30;;;;;;;21.44;39.59;98678.56;5032933;28;20043;-65
2022/02/17 01:16:53;;;;;;;7.75;2.80;;;;;;;21.35;39.55;98687.94;5030894;28;20033;-65
2022/02/17 01:19:19;;;;;;;10.55;2.45;;;;;;;21.38;39.42;98708.66;5031541;28;20041;-65
2022/02/17 01:21:47;;;;;;;12.68;3.20;;;;;;;21.35;39.39;98694.03;5030974;28;20049;-65
2022/02/17 01:24:13;;;;;;;9.80;3.30;;;;;;;21.36;39.22;98674.50;5033145;28;20037;-65
2022/02/17 01:26:40;;;;;;;8.40;2.85;;;;;;;21.34;39.06;98705.66;5049484;28;20128;-65
2022/02/17 01:29:11;;;;;;;9.13;2.80;;;;;;;21.33;39.22;98695.31;5048363;28;20491;-65
2022/02/17 01:31:37;;;;;;;12.85;3.20;;;;;;;21.30;39.22;98711.69;5030117;28;20033;-65
2022/02/17 01:34:11;;;;;;;11.20;2.75;;;;;;;21.31;39.15;98695.56;5034346;28;20498;-65
2022/02/17 01:36:41;;;;;;;12.63;3.17;;;;;;;21.31;39.25;98686.81;5029137;28;20039;-65
2022/02/17 01:39:07;;;;;;;13.40;2.92;;;;;;;21.30;39.18;98698.47;5036425;28;20045;-65
2022/02/17 01:41:35;;;;;;;11.82;2.97;;;;;;;21.23;38.85;98706.53;5041232;28;21041;-65
2022/02/17 01:44:06;;;;;;;11.13;2.83;;;;;;;21.24;38.69;98741.75;5033675;28;20041;-65
2022/02/17 01:46:37;;;;;;;12.65;2.72;;;;;;;21.21;38.50;98729.81;5026425;28;20052;-65
2022/02/17 01:49:05;;;;;;;12.45;3.28;;;;;;;21.17;38.37;98715.41;5034184;28;20048;-65
2022/02/17 01:51:31;;;;;;;9.95;2.80;;;;;;;21.13;38.10;98707.16;5027870;28;20132;-65
2022/02/17 01:53:58;;;;;;;15.23;3.40;;;;;;;21.12;38.15;98713.50;5036910;28;20604;-65
2022/02/17 01:56:25;;;;;;;11.45;2.78;;;;;;;21.08;38.04;98751.25;5027260;28;20032;-65
2022/02/17 01:58:53;;;;;;;9.80;2.95;;;;;;;21.11;38.03;98740.19;5035323;28;20119;-65
2022/02/17 02:01:28;;;;;;;13.50;3.47;;;;;;;21.08;37.90;98741.47;5025602;28;20033;-65
2022/02/17 02:03:54;;;;;;;15.95;3.40;;;;;;;21.07;37.82;98744.38;5034791;28;20108;-65
2022/02/17 02:06:20;;;;;;;13.93;3.65;;;;;;;20.97;37.86;98730.94;5026348;28;20387;-65
2022/02/17 02:08:58;;;;;;;13.13;3.17;;;;;;;21.01;38.15;98756.72;5032078;28;20486;-65
2022/02/17 02:11:26;;;;;;;12.45;2.72;;;;;;;20.93;37.84;98725.31;5038023;28;20607;-65
2022/02/17 02:13:58;;;;;;;10.93;3.75;;;;;;;21.01;37.85;98748.78;5063304;28;20367;-64
2022/02/17 02:16:29;;;;;;;21.73;3.65;;;;;;;21.01;37.78;98779.72;5041238;28;20391;-65
2022/02/17 02:18:54;;;;;;;14.90;3.28;;;;;;;20.97;37.62;98760.03;5032630;28;20075;-65
2022/02/17 02:21:22;;;;;;;15.35;4.10;;;;;;;20.97;37.79;98765.34;5030842;28;20056;-65
2022/02/17 02:23:47;;;;;;;10.68;3.05;;;;;;;20.95;37.86;98768.22;5065786;28;20044;-65
2022/02/17 02:26:13;;;;;;;15.85;3.72;;;;;;;20.96;37.90;98791.00;5030661;28;20084;-65
2022/02/17 02:28:40;;;;;;;15.15;3.85;;;;;;;20.95;37.42;98759.47;5032838;28;20044;-65
2022/02/17 02:31:07;;;;;;;14.43;3.85;;;;;;;20.92;37.61;98770.53;5028514;28;20031;-65
2022/02/17 02:33:33;;;;;;;13.90;3.08;;;;;;;20.90;37.48;98799.06;5034208;28;20037;-65
2022/02/17 02:35:59;;;;;;;16.25;3.58;;;;;;;20.88;37.49;98807.25;5059351;28;20819;-65
2022/02/17 02:38:27;;;;;;;12.38;3.53;;;;;;;20.86;37.35;98808.53;5036254;28;20106;-65
2022/02/17 02:40:55;;;;;;;14.52;3.47;;;;;;;20.83;37.46;98801.06;5026706;28;20045;-66
2022/02/17 02:43:43;;;;;;;20.05;4.47;;;;;;;20.81;37.42;98815.31;5035500;28;20048;-65
2022/02/17 02:46:12;;;;;;;13.80;3.92;;;;;;;20.83;37.29;98793.13;5027083;28;20311;-64
2022/02/17 02:48:40;;;;;;;16.95;3.40;;;;;;;20.83;37.26;98830.16;5032322;28;20041;-65
2022/02/17 02:51:10;;;;;;;11.52;3.75;;;;;;;20.80;37.42;98828.75;5025583;28;20060;-65
2022/02/17 02:53:36;;;;;;;17.58;3.58;;;;;;;20.75;37.31;98842.69;5031106;28;20771;-65
2022/02/17 02:56:02;;;;;;;10.27;3.30;;;;;;;20.75;37.49;98849.84;5031723;28;20053;-65
2022/02/17 02:58:27;;;;;;;15.90;3.85;;;;;;;20.74;37.40;98864.91;5037758;28;20123;-65
2022/02/17 03:00:53;;;;;;;17.45;3.72;;;;;;;20.75;37.54;98841.91;5032243;28;20272;-65
2022/02/17 03:03:20;;;;;;;19.25;4.55;;;;;;;20.70;37.40;98834.66;5033885;28;20028;-65
2022/02/17 03:05:46;;;;;;;17.42;3.78;;;;;;;20.70;37.27;98842.59;5034859;28;20049;-65
2022/02/17 03:08:14;;;;;;;13.00;3.72;;;;;;;20.71;37.32;98893.66;5034594;28;20468;-65
2022/02/17 03:10:39;;;;;;;21.95;4.47;;;;;;;20.66;37.37;98835.38;5041080;28;20044;-65
2022/02/17 03:13:11;;;;;;;17.48;3.47;;;;;;;20.63;37.10;98864.91;5066557;28;20057;-65
2022/02/17 03:15:37;;;;;;;16.42;4.47;;;;;;;20.68;37.07;98912.63;5036814;28;20059;-65
2022/02/17 03:18:02;;;;;;;17.52;3.50;;;;;;;20.63;37.18;98878.94;5032579;28;20581;-65
2022/02/17 03:20:28;;;;;;;17.38;3.42;;;;;;;20.66;37.07;98880.34;5066657;28;20052;-65
2022/02/17 03:22:54;;;;;;;13.05;3.35;;;;;;;20.64;37.01;98877.09;5030638;28;20037;-65
2022/02/17 03:25:22;;;;;;;16.35;3.90;;;;;;;20.61;36.92;98874.91;5063108;28;20040;-63
2022/02/17 03:27:47;;;;;;;16.83;4.55;;;;;;;20.61;36.88;98886.28;5038716;28;20036;-63
2022/02/17 03:30:35;;;;;;;16.17;4.07;;;;;;;20.47;36.96;98866.44;5032927;28;20098;-63
2022/02/17 03:33:12;;;;;;;17.30;3.47;;;;;;;20.59;36.82;98885.72;5037941;28;20455;-63
2022/02/17 03:35:39;;;;;;;13.25;3.30;;;;;;;20.59;36.95;98933.31;5037269;28;21750;-63
2022/02/17 03:38:07;;;;;;;18.75;3.58;;;;;;;20.57;37.04;98916.88;5038958;28;20045;-63
2022/02/17 03:40:36;;;;;;;14.90;3.65;;;;;;;20.44;37.01;98894.13;5050704;28;20079;-63
2022/02/17 03:43:02;;;;;;;14.20;3.40;;;;;;;20.55;36.87;98916.31;5016673;28;20037;-63
2022/02/17 03:45:27;;;;;;;18.92;3.63;;;;;;;20.55;36.80;98934.03;5037666;28;20191;-63
2022/02/17 03:48:04;;;;;;;17.15;3.72;;;;;;;20.51;36.99;98936.31;5033842;28;20043;-63
2022/02/17 03:50:30;;;;;;;17.35;4.32;;;;;;;20.50;36.82;98947.94;5064968;28;20655;-63
2022/02/17 03:53:06;;;;;;;18.30;4.18;;;;;;;20.47;36.97;98935.97;5020445;28;20047;-63
2022/02/17 03:55:34;;;;;;;12.90;3.65;;;;;;;20.48;36.84;98939.44;5036382;28;20071;-63
2022/02/17 03:58:00;;;;;;;13.32;3.53;;;;;;;20.46;36.86;98954.69;5032911;28;20033;-63
2022/02/17 04:00:28;;;;;;;12.48;3.92;;;;;;;20.46;36.65;98965.28;5035059;28;20764;-63
2022/02/17 04:02:56;;;;;;;23.38;5.35;;;;;;;20.44;36.46;98947.00;5028724;28;20040;-63
2022/02/17 04:05:24;;;;;;;17.67;4.38;;;;;;;20.42;36.64;98975.50;5035544;28;20491;-63
2022/02/17 04:07:59;;;;;;;19.27;4.20;;;;;;;20.40;36.60;98964.31;5024818;28;20041;-63
2022/02/17 04:10:26;;;;;;;12.57;3.90;;;;;;;20.42;36.59;98972.06;5052392;28;20143;-63
2022/02/17 04:12:54;;;;;;;18.60;4.28;;;;;;;20.40;36.53;98974.91;5031601;28;20140;-63
2022/02/17 04:15:21;;;;;;;14.13;3.42;;;;;;;20.41;36.40;98988.94;5036084;28;20047;-63
2022/02/17 04:17:47;;;;;;;19.08;4.93;;;;;;;20.39;36.60;98998.91;5033276;28;20049;-63
2022/02/17 04:20:39;;;;;;;15.23;3.65;;;;;;;20.37;36.56;99001.78;5032338;28;20052;-63
2022/02/17 04:23:23;;;;;;;17.15;3.55;;;;;;;20.33;36.57;98987.41;5031209;28;20067;-63
2022/02/17 04:25:52;;;;;;;16.85;4.35;;;;;;;20.27;36.47;98993.59;5036136;28;20120;-63
2022/02/17 04:28:47;;;;;;;19.35;4.93;;;;;;;20.33;36.52;99034.19;5032327;28;20392;-63
2022/02/17 04:31:14;;;;;;;18.40;4.70;;;;;;;20.27;36.38;99021.88;5029644;28;20040;-63
2022/02/17 04:33:43;;;;;;;16.45;4.13;;;;;;;20.31;36.42;99045.00;5065250;28;20033;-63
2022/02/17 04:36:19;;;;;;;20.55;4.43;;;;;;;20.25;36.26;99043.25;5062831;28;20055;-63
2022/02/17 04:38:45;;;;;;;18.60;3.70;;;;;;;20.29;36.51;99047.06;5023602;28;20041;-63
2022/02/17 04:43:55;;;;;;;16.85;3.92;;;;;;;20.26;36.52;99049.31;5036229;28;20025;-63
2022/02/17 04:46:21;;;;;;;15.43;4.50;;;;;;;20.25;36.54;99068.88;5033582;28;20089;-63
2022/02/17 04:48:47;;;;;;;18.08;4.03;;;;;;;20.25;36.45;99068.88;5030240;28;20029;-63
2022/02/17 04:51:14;;;;;;;18.08;4.45;;;;;;;20.21;36.49;99071.97;5031842;28;20466;-63
2022/02/17 04:53:39;;;;;;;17.50;3.83;;;;;;;20.22;36.38;99088.63;5031077;28;20040;-63
2022/02/17 04:56:05;;;;;;;15.25;3.88;;;;;;;20.20;36.33;99078.28;5034502;28;20036;-63
2022/02/17 04:58:35;;;;;;;16.63;3.65;;;;;;;20.18;36.16;99080.34;5026710;28;20037;-63
2022/02/17 05:01:01;;;;;;;16.92;3.67;;;;;;;20.20;36.29;99088.84;5032331;28;20083;-64
2022/02/17 05:03:55;;;;;;;17.75;4.05;;;;;;;20.15;36.45;99109.06;4994143;28;20045;-63
2022/02/17 05:06:21;;;;;;;22.35;4.55;;;;;;;20.16;36.25;99113.31;5039240;28;20411;-63
2022/02/17 05:08:54;;;;;;;13.93;4.10;;;;;;;20.15;36.21;99099.28;5033350;28;20029;-63
2022/02/17 05:11:20;;;;;;;13.98;3.60;;;;;;;20.16;36.34;99123.88;5066694;28;20120;-63
2022/02/17 05:13:47;;;;;;;16.85;4.35;;;;;;;20.11;36.36;99134.31;5062793;28;20131;-63
2022/02/17 05:16:15;;;;;;;18.90;3.85;;;;;;;20.12;36.10;99147.31;5037561;28;20063;-63
2022/02/17 05:18:41;;;;;;;18.35;3.65;;;;;;;20.13;36.06;99141.00;5032611;28;20555;-63
2022/02/17 05:21:13;;;;;;;20.10;4.03;;;;;;;20.10;36.00;99159.09;5036315;28;20067;-64
2022/02/17 05:24:11;;;;;;;10.20;3.00;;;;;;;20.10;36.15;99194.25;5009057;28;20049;-63
2022/02/17 05:27:00;;;;;;;18.80;3.88;;;;;;;20.06;36.25;99165.88;5025721;28;20152;-63
2022/02/17 05:29:54;;;;;;;19.38;4.63;;;;;;;20.09;36.17;99174.16;5029324;28;20040;-63
2022/02/17 05:32:52;;;;;;;18.23;3.38;;;;;;;20.09;36.31;99192.66;5009417;28;20049;-64
2022/02/17 05:35:47;;;;;;;16.77;3.70;;;;;;;20.06;36.64;99187.81;5042150;28;20041;-63
2022/02/17 05:38:32;;;;;;;18.48;4.32;;;;;;;20.07;36.55;99213.22;5030077;28;20037;-63
2022/02/17 05:41:11;;;;;;;19.85;3.92;;;;;;;20.06;36.70;99208.16;5061396;28;20148;-63
2022/02/17 05:43:38;;;;;;;16.52;3.97;;;;;;;20.00;36.80;99201.91;5029937;28;20037;-63
2022/02/17 05:46:04;;;;;;;13.15;3.53;;;;;;;20.03;36.78;99216.50;5070529;28;20040;-63
2022/02/17 05:48:29;;;;;;;14.57;4.10;;;;;;;20.04;36.67;99224.22;5027425;28;20063;-63
2022/02/17 05:50:55;;;;;;;16.17;3.38;;;;;;;20.04;36.59;99231.34;5041307;28;20024;-63
2022/02/17 05:53:20;;;;;;;15.95;3.70;;;;;;;20.06;36.56;99248.59;5029427;28;20049;-63
2022/02/17 05:55:46;;;;;;;20.25;4.38;;;;;;;20.02;36.83;99255.34;5034477;28;20041;-63
2022/02/17 05:58:12;;;;;;;23.40;4.55;;;;;;;20.04;36.73;99241.91;5035623;28;20045;-63
2022/02/17 06:00:37;;;;;;;14.50;4.35;;;;;;;20.07;36.53;99257.31;5033949;28;20033;-63
2022/02/17 06:03:03;;;;;;;14.98;3.42;;;;;;;20.03;36.66;99264.06;5031974;28;20718;-63
2022/02/17 06:05:28;;;;;;;15.77;3.85;;;;;;;20.04;36.67;99265.69;5026945;28;20095;-63
2022/02/17 06:07:54;;;;;;;13.85;3.90;;;;;;;20.02;36.44;99260.63;5030064;28;20091;-63
2022/02/17 06:10:19;;;;;;;17.77;3.97;;;;;;;20.04;36.74;99306.13;5031636;28;20099;-63
2022/02/17 06:12:46;;;;;;;12.27;3.45;;;;;;;20.03;36.75;99258.78;5032923;28;20049;-65
2022/02/17 06:15:13;;;;;;;17.05;4.10;;;;;;;20.04;36.72;99321.19;5016694;28;20167;-63
2022/02/17 06:17:40;;;;;;;17.35;4.13;;;;;;;20.00;36.96;99291.75;5033864;28;20462;-63
2022/02/17 06:20:07;;;;;;;21.40;4.55;;;;;;;20.02;36.72;99324.03;5035342;28;20045;-63
2022/02/17 06:22:33;;;;;;;18.05;4.57;;;;;;;19.98;36.82;99306.19;5032263;28;20044;-63
2022/02/17 06:24:58;;;;;;;17.63;4.20;;;;;;;19.96;36.91;99309.06;5032890;28;20036;-63
2022/02/17 06:27:24;;;;;;;19.55;3.90;;;;;;;19.98;36.85;99351.94;5030438;28;20055;-63
2022/02/17 06:29:50;;;;;;;16.23;3.42;;;;;;;20.03;36.73;99351.28;5036598;28;20029;-63
2022/02/17 06:32:15;;;;;;;16.88;3.90;;;;;;;20.36;36.48;99383.50;5039546;28;20568;-63
2022/02/17 06:34:41;;;;;;;16.90;3.63;;;;;;;20.61;36.12;99357.03;5033866;28;20044;-63
2022/02/17 06:37:06;;;;;;;16.88;3.55;;;;;;;21.08;35.67;99362.63;5045173;28;20045;-63
2022/02/17 06:39:32;;;;;;;12.82;3.88;;;;;;;21.65;34.90;99358.59;5031162;28;20134;-63
2022/02/17 06:41:57;;;;;;;16.50;4.22;;;;;;;21.86;34.19;99351.94;5027270;28;20033;-64
2022/02/17 06:44:23;;;;;;;16.70;3.60;;;;;;;21.96;34.17;99373.41;5036155;28;20064;-63
2022/02/17 06:46:49;;;;;;;18.48;3.72;;;;;;;21.89;34.41;99383.28;5039707;28;20036;-63
2022/02/17 06:49:14;;;;;;;15.00;3.60;;;;;;;21.72;34.71;99382.31;5039622;28;20036;-63
2022/02/17 06:51:40;;;;;;;12.90;3.72;;;;;;;21.67;34.96;99440.47;5037521;28;20040;-63
2022/02/17 06:54:07;;;;;;;18.48;4.22;;;;;;;21.55;34.90;99398.06;5034008;28;20098;-63
2022/02/17 06:56:32;;;;;;;13.15;3.20;;;;;;;21.43;34.96;99405.16;5037449;28;20143;-63
2022/02/17 06:58:58;;;;;;;16.20;3.65;;;;;;;21.42;35.01;99396.41;5031276;28;20055;-63
2022/02/17 07:01:24;;;;;;;21.58;3.92;;;;;;;21.41;34.90;99413.34;5038030;28;20036;-63
2022/02/17 07:03:51;;;;;;;16.75;3.95;;;;;;;21.43;35.04;99452.81;5036136;28;20564;-63
2022/02/17 07:06:17;;;;;;;18.55;4.03;;;;;;;21.38;35.02;99426.22;5040861;28;20045;-63
2022/02/17 07:08:42;;;;;;;15.32;3.40;;;;;;;21.44;34.79;99440.41;5032323;28;20036;-63
2022/02/17 07:11:09;;;;;;;17.55;4.10;;;;;;;21.41;34.90;99446.94;5040247;28;20131;-63
2022/02/17 07:13:35;;;;;;;21.05;4.03;;;;;;;21.45;35.04;99458.72;5032071;28;20037;-63
2022/02/17 07:16:00;;;;;;;15.75;4.05;;;;;;;21.45;34.95;99445.47;5041254;28;20535;-63
2022/02/17 07:18:27;;;;;;;19.48;4.55;;;;;;;21.33;34.92;99447.25;5034793;28;20041;-63
2022/02/17 07:20:56;;;;;;;17.92;4.13;;;;;;;21.42;34.78;99489.09;5034981;28;20053;-62
2022/02/17 07:23:26;;;;;;;16.67;3.58;;;;;;;21.44;34.88;99494.16;5033590;28;20064;-63
2022/02/17 07:25:52;;;;;;;20.05;4.75;;;;;;;21.48;34.91;99497.97;5035057;28;20037;-63
2022/02/17 07:28:22;;;;;;;17.30;3.53;;;;;;;21.70;34.75;99501.78;5036765;28;20510;-63
2022/02/17 07:30:49;;;;;;;16.00;3.20;;;;;;;21.82;34.24;99507.13;5033113;28;20501;-63
2022/02/17 07:33:15;;;;;;;19.27;3.92;;;;;;;21.76;34.18;99508.03;5039778;28;20098;-62
2022/02/17 07:35:41;;;;;;;18.63;3.28;;;;;;;21.73;34.19;99516.44;5032379;28;20490;-63
2022/02/17 07:38:07;;;;;;;13.77;3.67;;;;;;;21.70;34.16;99532.75;5038093;28;20075;-65
2022/02/17 07:40:32;;;;;;;16.52;3.72;;;;;;;21.64;34.35;99545.06;5030205;28;20045;-65
2022/02/17 07:42:58;;;;;;;14.85;4.63;;;;;;;21.65;34.30;99506.94;5032064;28;20045;-63
2022/02/17 07:45:24;;;;;;;16.30;3.10;;;;;;;21.73;34.22;99571.28;5032630;28;20059;-63
2022/02/17 07:47:51;;;;;;;13.70;2.92;;;;;;;21.71;34.50;99572.28;5035938;28;20644;-62
2022/02/17 07:50:19;;;;;;;16.38;4.22;;;;;;;21.67;34.29;99571.09;5034737;28;20071;-62
2022/02/17 07:52:46;;;;;;;12.52;3.65;;;;;;;21.67;34.26;99591.50;5032892;28;20029;-65
2022/02/17 07:55:12;;;;;;;15.32;3.22;;;;;;;21.53;34.35;99596.13;5049714;28;20399;-63
2022/02/17 07:57:39;;;;;;;13.98;3.35;;;;;;;21.53;34.66;99597.97;5035084;28;20045;-63
2022/02/17 08:00:07;;;;;;;14.20;3.60;;;;;;;21.47;34.86;99597.00;5033334;28;20033;-63
2022/02/17 08:02:38;;;;;;;14.73;3.30;;;;;;;21.56;34.80;99653.16;5031095;28;20041;-63
2022/02/17 08:05:04;;;;;;;14.10;3.35;;;;;;;21.62;34.79;99610.72;5033424;28;20043;-63
2022/02/17 08:07:31;;;;;;;15.35;3.30;;;;;;;21.70;34.73;99623.66;5032622;28;20386;-63
2022/02/17 08:09:58;;;;;;;15.90;3.78;;;;;;;21.68;34.54;99632.84;5029364;28;20056;-63
2022/02/17 08:12:23;;;;;;;12.50;3.03;;;;;;;21.66;34.84;99629.63;5034282;28;20043;-63
2022/02/17 08:14:49;;;;;;;13.13;3.38;;;;;;;21.73;34.82;99664.81;5031868;28;20029;-63
2022/02/17 08:17:15;;;;;;;14.05;3.80;;;;;;;21.67;35.09;99658.53;5045038;28;20037;-63
2022/02/17 08:19:41;;;;;;;13.68;3.45;;;;;;;21.60;34.91;99663.09;5033936;28;20041;-63
2022/02/17 08:22:07;;;;;;;16.33;3.00;;;;;;;21.51;35.32;99675.00;5038072;28;20110;-63
2022/02/17 08:24:33;;;;;;;10.30;2.20;;;;;;;21.48;35.15;99677.28;5036026;28;20024;-62
2022/02/17 08:26:59;;;;;;;12.13;3.00;;;;;;;21.51;35.29;99674.19;5042698;28;20071;-63
2022/02/17 08:29:26;;;;;;;12.35;2.53;;;;;;;21.60;35.18;99694.09;5040996;28;20553;-63
2022/02/17 08:31:52;;;;;;;12.65;2.65;;;;;;;21.58;35.16;99709.38;5031658;28;20041;-63
2022/02/17 08:34:19;;;;;;;9.75;3.08;;;;;;;21.52;35.49;99697.81;5042473;28;20040;-63
2022/02/17 08:36:45;;;;;;;13.10;2.92;;;;;;;21.49;35.52;99718.63;5032473;28;20040;-63
2022/02/17 08:39:10;;;;;;;11.57;3.40;;;;;;;21.42;35.63;99718.69;5036841;28;20043;-63
2022/02/17 08:41:36;;;;;;;13.77;3.13;;;;;;;21.46;35.61;99734.94;5029446;28;20041;-63
2022/02/17 08:44:04;;;;;;;10.13;2.60;;;;;;;21.47;35.61;99731.28;5035091;28;20900;-63
2022/02/17 08:46:30;;;;;;;14.50;3.83;;;;;;;21.64;35.38;99745.59;5035598;28;20040;-63
2022/02/17 08:48:55;;;;;;;12.75;3.22;;;;;;;21.68;35.43;99746.78;5032130;28;20037;-63
2022/02/17 08:51:24;;;;;;;9.40;2.97;;;;;;;21.75;34.94;99766.09;5039149;28;20678;-63
2022/02/17 08:53:49;;;;;;;11.43;3.08;;;;;;;21.67;35.29;99763.69;5033125;28;20489;-67
2022/02/17 08:56:15;;;;;;;8.23;2.35;;;;;;;21.36;36.49;99769.84;5005259;28;20052;-68
2022/02/17 08:58:40;;;;;;;12.48;3.28;;;;;;;21.31;36.59;99762.56;5005687;28;20041;-65
2022/02/17 09:01:06;;;;;;;10.57;2.53;;;;;;;21.41;36.83;99776.16;5034857;28;20569;-71
2022/02/17 09:03:32;;;;;;;14.07;3.53;;;;;;;21.61;36.69;99786.59;5036106;28;20154;-64
2022/02/17 09:05:58;;;;;;;11.10;3.03;;;;;;;21.66;36.51;99786.75;5035383;28;20419;-65
2022/02/17 09:08:23;;;;;;;12.95;3.17;;;;;;;21.60;36.87;99805.34;5038993;28;20041;-65
2022/02/17 09:10:49;;;;;;;11.23;3.08;;;;;;;21.71;36.52;99794.03;5037728;28;20039;-65
2022/02/17 09:13:15;;;;;;;10.73;2.45;;;;;;;21.69;36.87;99802.19;5011666;28;20040;-65
2022/02/17 09:15:41;;;;;;;9.85;2.35;;;;;;;21.75;36.58;99803.19;5029152;28;20048;-66
2022/02/17 09:18:06;;;;;;;10.13;3.00;;;;;;;21.71;36.68;99817.88;5036946;28;20102;-73
2022/02/17 09:20:32;;;;;;;13.63;3.38;;;;;;;21.56;36.76;99804.97;4998634;28;20065;-64
2022/02/17 09:22:59;;;;;;;10.63;2.90;;;;;;;21.76;36.50;99807.47;5030917;28;20040;-65
2022/02/17 09:25:24;;;;;;;9.52;3.08;;;;;;;21.76;36.40;99830.50;5002434;28;20407;-68
2022/02/17 09:27:50;;;;;;;10.95;2.97;;;;;;;21.85;36.35;99831.84;5032495;28;20127;-66
2022/02/17 09:30:16;;;;;;;12.75;3.25;;;;;;;21.83;36.55;99841.84;5003270;28;20040;-68
2022/02/17 09:32:41;;;;;;;13.38;2.50;;;;;;;21.96;36.08;99844.41;5050866;28;20160;-66
2022/02/17 09:35:11;;;;;;;18.17;2.83;;;;;;;21.91;36.35;99839.75;5031732;28;20049;-71
2022/02/17 09:37:39;;;;;;;9.85;2.80;;;;;;;21.93;36.04;99852.78;5034391;28;20617;-68
2022/02/17 09:40:06;;;;;;;9.30;2.42;;;;;;;21.94;36.01;99870.31;5043604;28;20628;-72
2022/02/17 09:42:37;;;;;;;11.05;2.60;;;;;;;21.89;36.04;99865.63;5007027;28;20568;-66
2022/02/17 09:45:05;;;;;;;9.73;2.78;;;;;;;21.93;36.34;99876.63;5030097;28;20585;-68
2022/02/17 09:47:31;;;;;;;10.70;3.00;;;;;;;21.83;36.43;99863.84;4996923;28;20035;-64
2022/02/17 09:49:58;;;;;;;8.30;2.30;;;;;;;21.91;36.23;99884.81;5032333;28;20037;-70
2022/02/17 09:52:23;;;;;;;13.77;2.83;;;;;;;22.05;36.09;99900.63;5012303;28;20033;-70
2022/02/17 09:54:51;;;;;;;10.48;3.47;;;;;;;22.09;36.28;99917.75;5029099;28;20473;-67
2022/02/17 09:57:23;;;;;;;11.75;2.80;;;;;;;22.13;36.16;99892.41;5012601;28;21592;-70
2022/02/17 09:59:48;;;;;;;10.25;2.85;;;;;;;22.05;36.28;99890.00;5032826;28;21774;-71
2022/02/17 10:02:24;;;;;;;9.27;2.53;;;;;;;22.03;36.39;99888.38;5006117;28;20143;-70
2022/02/17 10:04:57;;;;;;;10.60;2.92;;;;;;;22.08;36.12;99921.38;5021464;28;20035;-66
2022/02/17 10:07:42;;;;;;;7.82;2.10;;;;;;;22.12;36.34;99894.25;5033465;28;20044;-70
2022/02/17 10:10:10;;;;;;;12.02;2.97;;;;;;;22.18;36.13;99927.03;5033689;28;20040;-69
2022/02/17 10:12:48;;;;;;;9.07;2.42;;;;;;;22.17;36.16;99934.19;5027822;28;20116;-66
2022/02/17 10:15:24;;;;;;;8.15;2.35;;;;;;;22.19;36.39;99950.69;5025026;28;20048;-65
2022/02/17 10:18:03;;;;;;;9.98;2.85;;;;;;;22.12;35.40;99946.47;5009652;28;20040;-66
2022/02/17 10:20:53;;;;;;;12.00;3.30;;;;;;;22.08;34.61;99950.56;5024037;28;20060;-65
2022/02/17 10:23:20;;;;;;;10.02;2.58;;;;;;;21.97;34.60;99954.69;5028438;28;20033;-64
2022/02/17 10:26:03;;;;;;;11.35;3.40;;;;;;;21.95;35.07;99949.63;5004648;28;20496;-65
2022/02/17 10:28:33;;;;;;;12.98;3.17;;;;;;;21.95;35.32;99962.06;5046483;28;20394;-66
2022/02/17 10:30:59;;;;;;;13.70;2.78;;;;;;;21.86;34.95;99961.47;5006527;28;20038;-65
2022/02/17 10:33:43;;;;;;;14.45;3.05;;;;;;;21.85;34.83;99975.75;5029669;28;20529;-65
2022/02/17 10:36:09;;;;;;;11.50;2.88;;;;;;;21.88;34.51;99979.81;5001001;28;20139;-65
2022/02/17 10:38:37;;;;;;;17.92;3.50;;;;;;;21.72;34.63;99981.13;5023287;28;20128;-64
2022/02/17 10:41:04;;;;;;;10.00;2.80;;;;;;;21.70;34.31;99976.03;5033396;28;20040;-65
2022/02/17 10:43:31;;;;;;;12.57;2.90;;;;;;;21.72;34.17;99989.09;5002499;28;20049;-65
2022/02/17 10:46:04;;;;;;;12.15;3.38;;;;;;;21.67;34.75;100002.97;5032741;28;20045;-65
2022/02/17 10:48:30;;;;;;;11.13;2.72;;;;;;;21.58;35.09;99977.75;5002061;28;20049;-65
2022/02/17 10:51:09;;;;;;;17.30;3.53;;;;;;;21.58;34.78;100000.78;5026445;28;20042;-65
2022/02/17 10:53:42;;;;;;;15.10;3.45;;;;;;;21.51;34.75;100000.81;4973017;28;20577;-65
2022/02/17 10:56:22;;;;;;;17.17;3.75;;;;;;;21.56;34.63;100016.09;5031812;28;20037;-65
2022/02/17 10:58:50;;;;;;;14.70;3.80;;;;;;;21.51;34.58;100011.41;5007673;28;20041;-65
2022/02/17 11:01:18;;;;;;;18.10;3.58;;;;;;;21.51;34.65;100027.28;5034749;28;20090;-65
2022/02/17 11:03:45;;;;;;;17.27;3.63;;;;;;;21.50;34.78;100020.38;5002230;28;20032;-65
2022/02/17 11:06:13;;;;;;;17.00;3.40;;;;;;;21.46;34.40;100021.00;5033717;28;20210;-65
2022/02/17 11:08:41;;;;;;;11.27;2.50;;;;;;;21.50;34.40;100036.25;4995533;28;20588;-65
2022/02/17 11:11:08;;;;;;;16.55;4.07;;;;;;;21.51;34.61;100045.03;5030933;28;20153;-65
2022/02/17 11:13:34;;;;;;;15.63;3.28;;;;;;;21.51;34.37;100019.34;5032662;28;20038;-65
2022/02/17 11:16:02;;;;;;;12.93;3.15;;;;;;;21.53;34.24;100041.13;5015144;28;20032;-65
2022/02/17 11:18:29;;;;;;;11.27;3.33;;;;;;;21.56;34.15;100058.47;5041722;28;20040;-65
2022/02/17 11:20:57;;;;;;;11.80;2.92;;;;;;;21.60;34.02;100043.78;5007768;28;20045;-65
2022/02/17 11:23:33;;;;;;;15.55;3.40;;;;;;;21.59;34.11;100052.75;5033181;28;20486;-65
2022/02/17 11:26:01;;;;;;;15.63;3.28;;;;;;;21.46;34.29;100058.91;4997545;28;20047;-66
2022/02/17 11:28:34;;;;;;;12.68;3.25;;;;;;;21.51;33.91;100066.22;5042320;28;20510;-65
2022/02/17 11:31:07;;;;;;;18.80;4.18;;;;;;;21.56;34.11;100069.06;5006541;28;20041;-64
2022/02/17 11:33:39;;;;;;;14.05;2.67;;;;;;;21.56;34.29;100072.53;5034149;28;20211;-64